Wind Star — C6CA9 — position and weather

sailwx.info

Track history (hours):
 
Tides and Currents Weather Stations Pressure Air Temp Water Temp Dewpoint Dewpoint Depression Visibility Wind Speed Wind Dir Waves Ship Positions

Wind Star

Operator: Holland America Line

Last reported at 2016-Sep-25 21:13 UTC. Time now 2016-Sep-26 05:28 UTC.
Position N 37°08' E 024°54'.

Length 134 m; draft 4.2 m.

Type: Passenger vessel. MMSI: 309163000.

Date/timePositionNaut miles runAvg speedWind from/ knotsBaromVisibWave heightAir tempDewpointWater temp
2016-Sep-25 21:13N 37°08' E 024°54'28 7.8
2016-Sep-25 17:33N 37°28' E 025°19'0 0.0
2016-Sep-25 16:28N 37°28' E 025°19'0 0.0
2016-Sep-25 15:19N 37°28' E 025°19'0 0.0
2016-Sep-25 14:31N 37°28' E 025°19'0 0.0
2016-Sep-25 12:31N 37°28' E 025°19'0 0.0
2016-Sep-25 11:31N 37°28' E 025°19'0 0.0
2016-Sep-25 10:31N 37°28' E 025°19'0 0.0
2016-Sep-25 09:28N 37°28' E 025°19'0 0.0
2016-Sep-25 07:31N 37°28' E 025°19'0 0.0
2016-Sep-25 04:33N 37°28' E 025°19'22 5.6
2016-Sep-25 00:33N 37°32' E 024°52'14 6.9
2016-Sep-24 22:33N 37°31' E 024°34'21 7.0
2016-Sep-24 19:33N 37°31' E 024°08'8 7.9
2016-Sep-24 18:32N 37°34' E 023°58'7 7.2
2016-Sep-24 17:33N 37°36' E 023°50'7 7.1
2016-Sep-24 16:33N 37°40' E 023°42'17 8.3
2016-Sep-24 14:33N 37°56' E 023°37'1 0.5
2016-Sep-24 12:31N 37°56' E 023°38'0 0.0
2016-Sep-24 10:31N 37°56' E 023°38'0 0.0
2016-Sep-24 09:28N 37°56' E 023°38'0 0.1
2016-Sep-24 03:33N 37°56' E 023°37'5 5.5
2016-Sep-24 02:33N 37°51' E 023°39'8 8.0
2016-Sep-24 01:33N 37°44' E 023°43'8 8.0
2016-Sep-24 00:33N 37°36' E 023°46'35 7.0
2016-Sep-23 19:31N 37°09' E 023°17'13 6.8
2016-Sep-23 17:33N 37°12' E 023°01'17 7.3
2016-Sep-23 15:18N 37°27' E 022°51'8 4.4
2016-Sep-23 13:31N 37°34' E 022°48'0 0.0
2016-Sep-23 06:28N 37°34' E 022°48'0 0.0
2016-Sep-23 04:33N 37°34' E 022°48'4 3.7
2016-Sep-23 03:29N 37°30' E 022°49'7 6.8
2016-Sep-23 02:28N 37°24' E 022°53'6 4.8
2016-Sep-23 01:15N 37°19' E 022°57'3 4.0
2016-Sep-23 00:32N 37°17' E 022°58'5 5.2
2016-Sep-22 23:33N 37°13' E 023°02'15 4.9
2016-Sep-22 20:29N 37°06' E 023°19'  
2016-Sep-18 19:33N 37°22' E 025°07'11 2.8
2016-Sep-18 15:33N 37°27' E 025°19'0 0.0
2016-Sep-18 14:33N 37°27' E 025°19'0 0.0
2016-Sep-18 10:30N 37°27' E 025°19'0 0.0
2016-Sep-18 09:33N 37°27' E 025°19'9 1.2
2016-Sep-18 02:33N 37°29' E 025°09'15 7.2
2016-Sep-18 00:31N 37°31' E 024°50'38 6.7
2016-Sep-17 18:49N 37°33' E 024°02'30 5.8
2016-Sep-17 13:33N 37°56' E 023°38'0 0.0
2016-Sep-17 12:33N 37°56' E 023°38'0 0.0
2016-Sep-17 10:33N 37°56' E 023°38'0 0.0
2016-Sep-17 09:33N 37°56' E 023°38'0 0.0
2016-Sep-17 08:33N 37°56' E 023°38'0 0.0
2016-Sep-17 07:33N 37°56' E 023°38'0 0.0
2016-Sep-17 05:33N 37°56' E 023°38'0 0.0
2016-Sep-17 04:33N 37°56' E 023°38'19 4.7
2016-Sep-17 00:33N 37°38' E 023°45'43 6.1
2016-Sep-16 17:33N 37°13' E 023°02'16 7.5
2016-Sep-16 15:21N 37°27' E 022°51'8 2.8
2016-Sep-16 12:31N 37°34' E 022°48'0 0.0
2016-Sep-16 09:31N 37°34' E 022°48'0 0.0
2016-Sep-16 07:28N 37°34' E 022°48'4 1.0
2016-Sep-16 03:31N 37°30' E 022°48'17 5.7
2016-Sep-16 00:30N 37°15' E 022°59'10 4.8
2016-Sep-15 22:29N 37°07' E 023°06'5 5.4
2016-Sep-15 21:31N 37°06' E 023°13'  
Track history (hours):
 
Tides and Currents Weather Stations Pressure Air Temp Water Temp Dewpoint Dewpoint Depression Visibility Wind Speed Wind Dir Waves Ship Positions

Wind Star

Operator: Holland America Line

Last reported at 2016-Sep-25 21:13 UTC. Time now 2016-Sep-26 05:28 UTC.
Position N 37°08' E 024°54'.

Length 134 m; draft 4.2 m.

Type: Passenger vessel. MMSI: 309163000.

Date/timePositionNaut miles runAvg speedWind from/ knotsBaromVisibWave heightAir tempDewpointWater temp
2016-Sep-25 21:13N 37°08' E 024°54'28 7.8
2016-Sep-25 17:33N 37°28' E 025°19'0 0.0
2016-Sep-25 16:28N 37°28' E 025°19'0 0.0
2016-Sep-25 15:19N 37°28' E 025°19'0 0.0
2016-Sep-25 14:31N 37°28' E 025°19'0 0.0
2016-Sep-25 12:31N 37°28' E 025°19'0 0.0
2016-Sep-25 11:31N 37°28' E 025°19'0 0.0
2016-Sep-25 10:31N 37°28' E 025°19'0 0.0
2016-Sep-25 09:28N 37°28' E 025°19'0 0.0
2016-Sep-25 07:31N 37°28' E 025°19'0 0.0
2016-Sep-25 04:33N 37°28' E 025°19'22 5.6
2016-Sep-25 00:33N 37°32' E 024°52'14 6.9
2016-Sep-24 22:33N 37°31' E 024°34'21 7.0
2016-Sep-24 19:33N 37°31' E 024°08'8 7.9
2016-Sep-24 18:32N 37°34' E 023°58'7 7.2
2016-Sep-24 17:33N 37°36' E 023°50'7 7.1
2016-Sep-24 16:33N 37°40' E 023°42'17 8.3
2016-Sep-24 14:33N 37°56' E 023°37'1 0.5
2016-Sep-24 12:31N 37°56' E 023°38'0 0.0
2016-Sep-24 10:31N 37°56' E 023°38'0 0.0
2016-Sep-24 09:28N 37°56' E 023°38'0 0.1
2016-Sep-24 03:33N 37°56' E 023°37'5 5.5
2016-Sep-24 02:33N 37°51' E 023°39'8 8.0
2016-Sep-24 01:33N 37°44' E 023°43'8 8.0
2016-Sep-24 00:33N 37°36' E 023°46'35 7.0
2016-Sep-23 19:31N 37°09' E 023°17'13 6.8
2016-Sep-23 17:33N 37°12' E 023°01'17 7.3
2016-Sep-23 15:18N 37°27' E 022°51'8 4.4
2016-Sep-23 13:31N 37°34' E 022°48'0 0.0
2016-Sep-23 06:28N 37°34' E 022°48'0 0.0
2016-Sep-23 04:33N 37°34' E 022°48'4 3.7
2016-Sep-23 03:29N 37°30' E 022°49'7 6.8
2016-Sep-23 02:28N 37°24' E 022°53'6 4.8
2016-Sep-23 01:15N 37°19' E 022°57'3 4.0
2016-Sep-23 00:32N 37°17' E 022°58'5 5.2
2016-Sep-22 23:33N 37°13' E 023°02'15 4.9
2016-Sep-22 20:29N 37°06' E 023°19'  
2016-Sep-18 19:33N 37°22' E 025°07'11 2.8
2016-Sep-18 15:33N 37°27' E 025°19'0 0.0
2016-Sep-18 14:33N 37°27' E 025°19'0 0.0
2016-Sep-18 10:30N 37°27' E 025°19'0 0.0
2016-Sep-18 09:33N 37°27' E 025°19'9 1.2
2016-Sep-18 02:33N 37°29' E 025°09'15 7.2
2016-Sep-18 00:31N 37°31' E 024°50'38 6.7
2016-Sep-17 18:49N 37°33' E 024°02'30 5.8
2016-Sep-17 13:33N 37°56' E 023°38'0 0.0
2016-Sep-17 12:33N 37°56' E 023°38'0 0.0
2016-Sep-17 10:33N 37°56' E 023°38'0 0.0
2016-Sep-17 09:33N 37°56' E 023°38'0 0.0
2016-Sep-17 08:33N 37°56' E 023°38'0 0.0
2016-Sep-17 07:33N 37°56' E 023°38'0 0.0
2016-Sep-17 05:33N 37°56' E 023°38'0 0.0
2016-Sep-17 04:33N 37°56' E 023°38'19 4.7
2016-Sep-17 00:33N 37°38' E 023°45'43 6.1
2016-Sep-16 17:33N 37°13' E 023°02'16 7.5
2016-Sep-16 15:21N 37°27' E 022°51'8 2.8
2016-Sep-16 12:31N 37°34' E 022°48'0 0.0
2016-Sep-16 09:31N 37°34' E 022°48'0 0.0
2016-Sep-16 07:28N 37°34' E 022°48'4 1.0
2016-Sep-16 03:31N 37°30' E 022°48'17 5.7
2016-Sep-16 00:30N 37°15' E 022°59'10 4.8
2016-Sep-15 22:29N 37°07' E 023°06'5 5.4
2016-Sep-15 21:31N 37°06' E 023°13'  

Dump ship's entire track history